sensor_id;sensor_type;location;lat;lon;timestamp;temperature;humidity
12481;DHT22;6305;48.398;11.762;2023-04-06T00:00:38;-3.40;99.90
12481;DHT22;6305;48.398;11.762;2023-04-06T00:03:05;-3.40;99.90
12481;DHT22;6305;48.398;11.762;2023-04-06T00:05:34;-3.30;99.90
12481;DHT22;6305;48.398;11.762;2023-04-06T00:08:01;-3.40;99.90
12481;DHT22;6305;48.398;11.762;2023-04-06T00:10:28;-3.40;99.90
12481;DHT22;6305;48.398;11.762;2023-04-06T00:12:55;-3.40;99.90
12481;DHT22;6305;48.398;11.762;2023-04-06T00:15:23;-3.40;99.90
12481;DHT22;6305;48.398;11.762;2023-04-06T00:17:50;-3.40;99.90
12481;DHT22;6305;48.398;11.762;2023-04-06T00:20:17;-3.50;99.90
12481;DHT22;6305;48.398;11.762;2023-04-06T00:22:45;-3.50;99.90
12481;DHT22;6305;48.398;11.762;2023-04-06T00:25:12;-3.60;99.90
12481;DHT22;6305;48.398;11.762;2023-04-06T00:27:41;-3.60;99.90
12481;DHT22;6305;48.398;11.762;2023-04-06T00:30:09;-3.70;99.90
12481;DHT22;6305;48.398;11.762;2023-04-06T00:32:36;-3.70;99.90
12481;DHT22;6305;48.398;11.762;2023-04-06T00:35:03;-3.70;99.90
12481;DHT22;6305;48.398;11.762;2023-04-06T00:37:30;-3.70;99.90
12481;DHT22;6305;48.398;11.762;2023-04-06T00:39:58;-3.70;99.90
12481;DHT22;6305;48.398;11.762;2023-04-06T00:42:26;-3.60;99.90
12481;DHT22;6305;48.398;11.762;2023-04-06T00:44:53;-3.60;99.90
12481;DHT22;6305;48.398;11.762;2023-04-06T00:47:20;-3.60;99.90
12481;DHT22;6305;48.398;11.762;2023-04-06T00:49:47;-3.60;99.90
12481;DHT22;6305;48.398;11.762;2023-04-06T00:52:15;-3.60;99.90
12481;DHT22;6305;48.398;11.762;2023-04-06T00:54:45;-3.60;99.90
12481;DHT22;6305;48.398;11.762;2023-04-06T00:57:14;-3.60;99.90
12481;DHT22;6305;48.398;11.762;2023-04-06T00:59:43;-3.60;99.90
12481;DHT22;6305;48.398;11.762;2023-04-06T01:02:11;-3.70;99.90
12481;DHT22;6305;48.398;11.762;2023-04-06T01:04:45;-3.70;99.90
12481;DHT22;6305;48.398;11.762;2023-04-06T01:07:24;-3.80;99.90
12481;DHT22;6305;48.398;11.762;2023-04-06T01:10:04;-3.90;99.90
12481;DHT22;6305;48.398;11.762;2023-04-06T01:12:34;-3.90;99.90
12481;DHT22;6305;48.398;11.762;2023-04-06T01:15:05;-3.90;99.90
12481;DHT22;6305;48.398;11.762;2023-04-06T01:17:35;-3.90;99.90
12481;DHT22;6305;48.398;11.762;2023-04-06T01:20:08;-3.90;99.90
12481;DHT22;6305;48.398;11.762;2023-04-06T01:22:37;-3.80;99.90
12481;DHT22;6305;48.398;11.762;2023-04-06T01:25:05;-3.80;99.90
12481;DHT22;6305;48.398;11.762;2023-04-06T01:27:50;-3.80;99.90
12481;DHT22;6305;48.398;11.762;2023-04-06T01:30:24;-3.80;99.90
12481;DHT22;6305;48.398;11.762;2023-04-06T01:32:58;-3.90;99.90
12481;DHT22;6305;48.398;11.762;2023-04-06T01:35:36;-4.00;99.90
12481;DHT22;6305;48.398;11.762;2023-04-06T01:38:13;-4.10;99.90
12481;DHT22;6305;48.398;11.762;2023-04-06T01:40:40;-4.20;99.90
12481;DHT22;6305;48.398;11.762;2023-04-06T01:43:08;-4.20;99.90
12481;DHT22;6305;48.398;11.762;2023-04-06T01:45:46;-4.20;99.90
12481;DHT22;6305;48.398;11.762;2023-04-06T01:48:18;-4.20;99.90
12481;DHT22;6305;48.398;11.762;2023-04-06T01:50:45;-4.20;99.90
12481;DHT22;6305;48.398;11.762;2023-04-06T01:53:19;-4.20;99.90
12481;DHT22;6305;48.398;11.762;2023-04-06T01:55:47;-4.30;99.90
12481;DHT22;6305;48.398;11.762;2023-04-06T01:58:25;-4.30;99.90
12481;DHT22;6305;48.398;11.762;2023-04-06T02:00:52;-4.30;99.90
12481;DHT22;6305;48.398;11.762;2023-04-06T02:03:19;-4.30;99.90
12481;DHT22;6305;48.398;11.762;2023-04-06T02:05:47;-4.30;99.90
12481;DHT22;6305;48.398;11.762;2023-04-06T02:08:25;-4.20;99.90
12481;DHT22;6305;48.398;11.762;2023-04-06T02:10:52;-4.20;99.90
12481;DHT22;6305;48.398;11.762;2023-04-06T02:13:28;-4.20;99.90
12481;DHT22;6305;48.398;11.762;2023-04-06T02:15:55;-4.30;99.90
12481;DHT22;6305;48.398;11.762;2023-04-06T02:18:22;-4.30;99.90
12481;DHT22;6305;48.398;11.762;2023-04-06T02:20:50;-4.40;99.90
12481;DHT22;6305;48.398;11.762;2023-04-06T02:23:16;-4.40;99.90
12481;DHT22;6305;48.398;11.762;2023-04-06T02:25:45;-4.40;99.90
12481;DHT22;6305;48.398;11.762;2023-04-06T02:28:12;-4.30;99.90
12481;DHT22;6305;48.398;11.762;2023-04-06T02:30:39;-4.30;99.90
12481;DHT22;6305;48.398;11.762;2023-04-06T02:33:06;-4.40;99.90
12481;DHT22;6305;48.398;11.762;2023-04-06T02:35:40;-4.40;99.90
12481;DHT22;6305;48.398;11.762;2023-04-06T02:38:07;-4.40;99.90
12481;DHT22;6305;48.398;11.762;2023-04-06T02:40:34;-4.40;99.90
12481;DHT22;6305;48.398;11.762;2023-04-06T02:43:13;-4.40;99.90
12481;DHT22;6305;48.398;11.762;2023-04-06T02:45:41;-4.30;99.90
12481;DHT22;6305;48.398;11.762;2023-04-06T02:48:09;-4.40;99.90
12481;DHT22;6305;48.398;11.762;2023-04-06T02:50:36;-4.30;99.90
12481;DHT22;6305;48.398;11.762;2023-04-06T02:53:06;-4.30;99.90
12481;DHT22;6305;48.398;11.762;2023-04-06T02:55:34;-4.30;99.90
12481;DHT22;6305;48.398;11.762;2023-04-06T02:58:01;-4.30;99.90
12481;DHT22;6305;48.398;11.762;2023-04-06T03:00:37;-4.40;99.90
12481;DHT22;6305;48.398;11.762;2023-04-06T03:03:04;-4.50;99.90
12481;DHT22;6305;48.398;11.762;2023-04-06T03:05:33;-4.50;99.90
12481;DHT22;6305;48.398;11.762;2023-04-06T03:08:00;-4.50;99.90
12481;DHT22;6305;48.398;11.762;2023-04-06T03:10:39;-4.60;99.90
12481;DHT22;6305;48.398;11.762;2023-04-06T03:13:07;-4.50;99.90
12481;DHT22;6305;48.398;11.762;2023-04-06T03:15:55;-4.40;99.90
12481;DHT22;6305;48.398;11.762;2023-04-06T03:18:23;-4.40;99.90
12481;DHT22;6305;48.398;11.762;2023-04-06T03:20:52;-4.40;99.90
12481;DHT22;6305;48.398;11.762;2023-04-06T03:23:22;-4.50;99.90
12481;DHT22;6305;48.398;11.762;2023-04-06T03:25:54;-4.50;99.90
12481;DHT22;6305;48.398;11.762;2023-04-06T03:28:21;-4.60;99.90
12481;DHT22;6305;48.398;11.762;2023-04-06T03:30:56;-4.60;99.90
12481;DHT22;6305;48.398;11.762;2023-04-06T03:33:42;-4.60;99.90
12481;DHT22;6305;48.398;11.762;2023-04-06T03:36:14;-4.70;99.90
12481;DHT22;6305;48.398;11.762;2023-04-06T03:38:43;-4.70;99.90
12481;DHT22;6305;48.398;11.762;2023-04-06T03:41:12;-4.70;99.90
12481;DHT22;6305;48.398;11.762;2023-04-06T03:43:43;-4.80;99.90
12481;DHT22;6305;48.398;11.762;2023-04-06T03:46:12;-4.80;99.90
12481;DHT22;6305;48.398;11.762;2023-04-06T03:48:39;-4.90;99.90
12481;DHT22;6305;48.398;11.762;2023-04-06T03:51:06;-4.90;99.90
12481;DHT22;6305;48.398;11.762;2023-04-06T03:53:33;-5.00;99.90
12481;DHT22;6305;48.398;11.762;2023-04-06T03:56:02;-5.00;99.90
12481;DHT22;6305;48.398;11.762;2023-04-06T03:58:29;-5.00;99.90
12481;DHT22;6305;48.398;11.762;2023-04-06T04:00:56;-5.00;99.90
12481;DHT22;6305;48.398;11.762;2023-04-06T04:03:24;-5.00;99.90
12481;DHT22;6305;48.398;11.762;2023-04-06T04:05:53;-5.00;99.90
12481;DHT22;6305;48.398;11.762;2023-04-06T04:08:20;-5.10;99.90
12481;DHT22;6305;48.398;11.762;2023-04-06T04:10:47;-5.10;99.90
12481;DHT22;6305;48.398;11.762;2023-04-06T04:13:14;-5.10;99.90
12481;DHT22;6305;48.398;11.762;2023-04-06T04:15:45;-5.00;99.90
12481;DHT22;6305;48.398;11.762;2023-04-06T04:18:13;-5.10;99.90
12481;DHT22;6305;48.398;11.762;2023-04-06T04:20:41;-5.00;99.90
12481;DHT22;6305;48.398;11.762;2023-04-06T04:23:10;-5.00;99.90
12481;DHT22;6305;48.398;11.762;2023-04-06T04:25:37;-5.00;99.90
12481;DHT22;6305;48.398;11.762;2023-04-06T04:28:04;-5.00;99.90
12481;DHT22;6305;48.398;11.762;2023-04-06T04:30:32;-5.00;99.90
12481;DHT22;6305;48.398;11.762;2023-04-06T04:32:58;-5.00;99.90
12481;DHT22;6305;48.398;11.762;2023-04-06T04:35:27;-5.00;99.90
12481;DHT22;6305;48.398;11.762;2023-04-06T04:37:56;-4.90;99.90
12481;DHT22;6305;48.398;11.762;2023-04-06T04:40:23;-5.00;99.90
12481;DHT22;6305;48.398;11.762;2023-04-06T04:43:01;-5.00;99.90
12481;DHT22;6305;48.398;11.762;2023-04-06T04:45:32;-5.00;99.90
12481;DHT22;6305;48.398;11.762;2023-04-06T04:48:06;-5.10;99.90
12481;DHT22;6305;48.398;11.762;2023-04-06T04:50:46;-5.00;99.90
12481;DHT22;6305;48.398;11.762;2023-04-06T04:53:16;-5.00;99.90
12481;DHT22;6305;48.398;11.762;2023-04-06T04:55:44;-4.90;99.90
12481;DHT22;6305;48.398;11.762;2023-04-06T04:58:13;-4.90;99.90
12481;DHT22;6305;48.398;11.762;2023-04-06T05:00:48;-4.90;99.90
12481;DHT22;6305;48.398;11.762;2023-04-06T05:03:19;-4.80;99.90
12481;DHT22;6305;48.398;11.762;2023-04-06T05:05:54;-4.60;99.90
12481;DHT22;6305;48.398;11.762;2023-04-06T05:08:26;-4.60;99.90
12481;DHT22;6305;48.398;11.762;2023-04-06T05:10:53;-4.50;99.90
12481;DHT22;6305;48.398;11.762;2023-04-06T05:13:20;-4.30;99.90
12481;DHT22;6305;48.398;11.762;2023-04-06T05:15:49;-4.20;99.90
12481;DHT22;6305;48.398;11.762;2023-04-06T05:18:22;-4.10;99.90
12481;DHT22;6305;48.398;11.762;2023-04-06T05:20:50;-4.00;99.90
12481;DHT22;6305;48.398;11.762;2023-04-06T05:23:20;-3.90;99.90
12481;DHT22;6305;48.398;11.762;2023-04-06T05:25:49;-3.70;99.90
12481;DHT22;6305;48.398;11.762;2023-04-06T05:28:20;-3.60;99.90
12481;DHT22;6305;48.398;11.762;2023-04-06T05:30:47;-3.50;99.90
12481;DHT22;6305;48.398;11.762;2023-04-06T05:33:15;-3.30;99.90
12481;DHT22;6305;48.398;11.762;2023-04-06T05:35:55;-3.10;99.90
12481;DHT22;6305;48.398;11.762;2023-04-06T05:38:22;-2.90;99.90
12481;DHT22;6305;48.398;11.762;2023-04-06T05:40:53;-2.70;99.90
12481;DHT22;6305;48.398;11.762;2023-04-06T05:43:24;-2.50;99.90
12481;DHT22;6305;48.398;11.762;2023-04-06T05:45:54;-2.30;99.90
12481;DHT22;6305;48.398;11.762;2023-04-06T05:48:21;-2.00;99.90
12481;DHT22;6305;48.398;11.762;2023-04-06T05:50:48;-1.60;99.90
12481;DHT22;6305;48.398;11.762;2023-04-06T05:53:23;-1.30;99.90
12481;DHT22;6305;48.398;11.762;2023-04-06T05:55:56;-1.00;99.90
12481;DHT22;6305;48.398;11.762;2023-04-06T05:58:23;-0.60;99.90
12481;DHT22;6305;48.398;11.762;2023-04-06T06:00:56;-0.20;99.90
12481;DHT22;6305;48.398;11.762;2023-04-06T06:03:24;0.20;99.90
12481;DHT22;6305;48.398;11.762;2023-04-06T06:05:59;0.60;99.90
12481;DHT22;6305;48.398;11.762;2023-04-06T06:08:30;1.00;99.90
12481;DHT22;6305;48.398;11.762;2023-04-06T06:11:02;1.30;99.90
12481;DHT22;6305;48.398;11.762;2023-04-06T06:13:29;1.70;99.90
12481;DHT22;6305;48.398;11.762;2023-04-06T06:15:57;2.20;99.90
12481;DHT22;6305;48.398;11.762;2023-04-06T06:18:25;2.50;99.90
12481;DHT22;6305;48.398;11.762;2023-04-06T06:20:53;2.90;99.90
12481;DHT22;6305;48.398;11.762;2023-04-06T06:23:20;3.40;99.90
12481;DHT22;6305;48.398;11.762;2023-04-06T06:25:48;3.70;99.90
12481;DHT22;6305;48.398;11.762;2023-04-06T06:28:17;3.80;99.90
12481;DHT22;6305;48.398;11.762;2023-04-06T06:30:44;4.20;99.90
12481;DHT22;6305;48.398;11.762;2023-04-06T06:33:15;4.70;99.90
12481;DHT22;6305;48.398;11.762;2023-04-06T06:35:42;5.50;99.90
12481;DHT22;6305;48.398;11.762;2023-04-06T06:38:10;6.20;99.90
12481;DHT22;6305;48.398;11.762;2023-04-06T06:40:37;6.80;99.90
12481;DHT22;6305;48.398;11.762;2023-04-06T06:43:04;7.70;99.90
12481;DHT22;6305;48.398;11.762;2023-04-06T06:46:08;8.50;93.70
12481;DHT22;6305;48.398;11.762;2023-04-06T06:48:35;9.60;85.80
12481;DHT22;6305;48.398;11.762;2023-04-06T06:51:03;11.20;78.30
12481;DHT22;6305;48.398;11.762;2023-04-06T06:53:30;12.30;64.70
12481;DHT22;6305;48.398;11.762;2023-04-06T06:55:58;13.20;58.80
12481;DHT22;6305;48.398;11.762;2023-04-06T06:58:25;14.70;55.40
12481;DHT22;6305;48.398;11.762;2023-04-06T07:00:55;16.00;50.50
12481;DHT22;6305;48.398;11.762;2023-04-06T07:03:24;16.50;46.70
12481;DHT22;6305;48.398;11.762;2023-04-06T07:05:51;17.30;44.70
12481;DHT22;6305;48.398;11.762;2023-04-06T07:08:20;18.30;43.00
12481;DHT22;6305;48.398;11.762;2023-04-06T07:10:47;18.70;40.30
12481;DHT22;6305;48.398;11.762;2023-04-06T07:13:16;19.50;39.20
12481;DHT22;6305;48.398;11.762;2023-04-06T07:15:48;19.60;38.20
12481;DHT22;6305;48.398;11.762;2023-04-06T07:18:15;20.50;38.10
12481;DHT22;6305;48.398;11.762;2023-04-06T07:20:44;21.10;36.50
12481;DHT22;6305;48.398;11.762;2023-04-06T07:23:11;21.80;35.90
12481;DHT22;6305;48.398;11.762;2023-04-06T07:25:38;22.30;34.60
12481;DHT22;6305;48.398;11.762;2023-04-06T07:28:05;22.30;33.30
12481;DHT22;6305;48.398;11.762;2023-04-06T07:30:33;23.20;33.20
12481;DHT22;6305;48.398;11.762;2023-04-06T07:33:01;24.10;32.70
12481;DHT22;6305;48.398;11.762;2023-04-06T07:35:28;24.80;31.30
12481;DHT22;6305;48.398;11.762;2023-04-06T07:37:58;25.00;30.30
12481;DHT22;6305;48.398;11.762;2023-04-06T07:40:25;24.90;29.50
12481;DHT22;6305;48.398;11.762;2023-04-06T07:42:53;24.40;29.50
12481;DHT22;6305;48.398;11.762;2023-04-06T07:45:21;24.20;29.40
12481;DHT22;6305;48.398;11.762;2023-04-06T07:47:48;23.80;30.00
12481;DHT22;6305;48.398;11.762;2023-04-06T07:50:15;24.00;30.00
12481;DHT22;6305;48.398;11.762;2023-04-06T07:52:42;23.90;29.80
12481;DHT22;6305;48.398;11.762;2023-04-06T07:55:11;24.10;30.50
12481;DHT22;6305;48.398;11.762;2023-04-06T07:57:38;25.00;30.70
12481;DHT22;6305;48.398;11.762;2023-04-06T08:00:06;25.80;29.60
12481;DHT22;6305;48.398;11.762;2023-04-06T08:02:37;25.70;28.90
12481;DHT22;6305;48.398;11.762;2023-04-06T08:05:05;25.90;28.50
12481;DHT22;6305;48.398;11.762;2023-04-06T08:07:32;25.60;28.20
12481;DHT22;6305;48.398;11.762;2023-04-06T08:09:59;25.00;27.80
12481;DHT22;6305;48.398;11.762;2023-04-06T08:12:28;24.80;28.40
12481;DHT22;6305;48.398;11.762;2023-04-06T08:14:54;25.10;28.60
12481;DHT22;6305;48.398;11.762;2023-04-06T08:17:22;25.80;28.40
12481;DHT22;6305;48.398;11.762;2023-04-06T08:19:49;26.30;27.40
12481;DHT22;6305;48.398;11.762;2023-04-06T08:22:16;26.30;27.00
12481;DHT22;6305;48.398;11.762;2023-04-06T08:24:43;25.70;26.40
12481;DHT22;6305;48.398;11.762;2023-04-06T08:27:10;24.90;26.70
12481;DHT22;6305;48.398;11.762;2023-04-06T08:29:38;24.80;27.00
12481;DHT22;6305;48.398;11.762;2023-04-06T08:32:05;25.00;27.60
12481;DHT22;6305;48.398;11.762;2023-04-06T08:34:32;25.80;26.90
12481;DHT22;6305;48.398;11.762;2023-04-06T08:36:59;26.10;26.60
12481;DHT22;6305;48.398;11.762;2023-04-06T08:39:27;26.00;26.20
12481;DHT22;6305;48.398;11.762;2023-04-06T08:41:56;26.30;26.10
12481;DHT22;6305;48.398;11.762;2023-04-06T08:44:25;25.60;25.70
12481;DHT22;6305;48.398;11.762;2023-04-06T08:46:54;25.30;25.70
12481;DHT22;6305;48.398;11.762;2023-04-06T08:49:21;25.40;26.10
12481;DHT22;6305;48.398;11.762;2023-04-06T08:51:49;26.10;26.00
12481;DHT22;6305;48.398;11.762;2023-04-06T08:54:16;26.60;25.30
12481;DHT22;6305;48.398;11.762;2023-04-06T08:56:43;26.80;24.20
12481;DHT22;6305;48.398;11.762;2023-04-06T08:59:11;25.60;24.00
12481;DHT22;6305;48.398;11.762;2023-04-06T09:01:40;24.60;24.80
12481;DHT22;6305;48.398;11.762;2023-04-06T09:04:12;25.00;25.40
12481;DHT22;6305;48.398;11.762;2023-04-06T09:06:39;25.30;24.50
12481;DHT22;6305;48.398;11.762;2023-04-06T09:09:07;24.90;24.40
12481;DHT22;6305;48.398;11.762;2023-04-06T09:11:47;24.90;25.00
12481;DHT22;6305;48.398;11.762;2023-04-06T09:14:14;25.20;24.80
12481;DHT22;6305;48.398;11.762;2023-04-06T09:16:43;24.50;25.10
12481;DHT22;6305;48.398;11.762;2023-04-06T09:19:13;24.40;25.10
12481;DHT22;6305;48.398;11.762;2023-04-06T09:21:40;25.20;25.50
12481;DHT22;6305;48.398;11.762;2023-04-06T09:24:08;26.50;25.20
12481;DHT22;6305;48.398;11.762;2023-04-06T09:26:45;27.00;24.50
12481;DHT22;6305;48.398;11.762;2023-04-06T09:29:22;26.60;23.60
12481;DHT22;6305;48.398;11.762;2023-04-06T09:31:50;25.30;23.70
12481;DHT22;6305;48.398;11.762;2023-04-06T09:34:27;24.10;24.30
12481;DHT22;6305;48.398;11.762;2023-04-06T09:36:53;22.50;24.50
12481;DHT22;6305;48.398;11.762;2023-04-06T09:39:21;22.30;25.90
12481;DHT22;6305;48.398;11.762;2023-04-06T09:41:51;23.50;26.40
12481;DHT22;6305;48.398;11.762;2023-04-06T09:44:18;24.60;26.80
12481;DHT22;6305;48.398;11.762;2023-04-06T09:46:46;25.40;26.40
12481;DHT22;6305;48.398;11.762;2023-04-06T09:49:14;26.10;25.70
12481;DHT22;6305;48.398;11.762;2023-04-06T09:51:45;26.10;24.60
12481;DHT22;6305;48.398;11.762;2023-04-06T09:54:17;25.40;24.30
12481;DHT22;6305;48.398;11.762;2023-04-06T09:56:46;24.90;24.60
12481;DHT22;6305;48.398;11.762;2023-04-06T09:59:17;24.40;23.80
12481;DHT22;6305;48.398;11.762;2023-04-06T10:01:46;23.40;24.20
12481;DHT22;6305;48.398;11.762;2023-04-06T10:04:25;23.80;26.10
12481;DHT22;6305;48.398;11.762;2023-04-06T10:06:57;24.20;25.60
12481;DHT22;6305;48.398;11.762;2023-04-06T10:09:27;25.60;25.70
12481;DHT22;6305;48.398;11.762;2023-04-06T10:11:55;25.60;24.10
12481;DHT22;6305;48.398;11.762;2023-04-06T10:14:22;25.90;24.20
12481;DHT22;6305;48.398;11.762;2023-04-06T10:16:50;26.80;24.30
12481;DHT22;6305;48.398;11.762;2023-04-06T10:19:22;27.50;23.40
12481;DHT22;6305;48.398;11.762;2023-04-06T10:21:53;28.20;22.70
12481;DHT22;6305;48.398;11.762;2023-04-06T10:24:22;28.80;22.40
12481;DHT22;6305;48.398;11.762;2023-04-06T10:26:57;29.00;21.50
12481;DHT22;6305;48.398;11.762;2023-04-06T10:29:24;28.60;21.30
12481;DHT22;6305;48.398;11.762;2023-04-06T10:31:51;28.70;21.70
12481;DHT22;6305;48.398;11.762;2023-04-06T10:34:18;29.20;21.60
12481;DHT22;6305;48.398;11.762;2023-04-06T10:36:45;28.50;21.00
12481;DHT22;6305;48.398;11.762;2023-04-06T10:39:12;27.20;20.90
12481;DHT22;6305;48.398;11.762;2023-04-06T10:41:43;25.90;21.70
12481;DHT22;6305;48.398;11.762;2023-04-06T10:44:17;26.40;22.40
12481;DHT22;6305;48.398;11.762;2023-04-06T10:46:56;26.50;22.20
12481;DHT22;6305;48.398;11.762;2023-04-06T10:49:24;26.20;22.10
12481;DHT22;6305;48.398;11.762;2023-04-06T10:51:53;25.70;22.20
12481;DHT22;6305;48.398;11.762;2023-04-06T10:54:21;24.60;22.00
12481;DHT22;6305;48.398;11.762;2023-04-06T10:56:49;24.60;23.10
12481;DHT22;6305;48.398;11.762;2023-04-06T10:59:19;24.90;22.80
12481;DHT22;6305;48.398;11.762;2023-04-06T11:01:47;24.40;22.50
12481;DHT22;6305;48.398;11.762;2023-04-06T11:04:16;24.40;22.90
12481;DHT22;6305;48.398;11.762;2023-04-06T11:06:46;25.50;23.30
12481;DHT22;6305;48.398;11.762;2023-04-06T11:09:23;26.70;22.70
12481;DHT22;6305;48.398;11.762;2023-04-06T11:11:53;27.90;22.10
12481;DHT22;6305;48.398;11.762;2023-04-06T11:14:20;28.50;21.10
12481;DHT22;6305;48.398;11.762;2023-04-06T11:16:48;28.40;20.20
12481;DHT22;6305;48.398;11.762;2023-04-06T11:19:16;27.00;20.80
12481;DHT22;6305;48.398;11.762;2023-04-06T11:21:44;26.40;21.50
12481;DHT22;6305;48.398;11.762;2023-04-06T11:24:14;26.80;21.90
12481;DHT22;6305;48.398;11.762;2023-04-06T11:26:43;27.70;22.10
12481;DHT22;6305;48.398;11.762;2023-04-06T11:29:13;28.20;20.80
12481;DHT22;6305;48.398;11.762;2023-04-06T11:31:41;28.50;20.60
12481;DHT22;6305;48.398;11.762;2023-04-06T11:34:13;28.30;19.90
12481;DHT22;6305;48.398;11.762;2023-04-06T11:36:41;27.60;20.30
12481;DHT22;6305;48.398;11.762;2023-04-06T11:39:08;27.40;20.50
12481;DHT22;6305;48.398;11.762;2023-04-06T11:41:36;26.30;20.80
12481;DHT22;6305;48.398;11.762;2023-04-06T11:44:03;24.50;21.60
12481;DHT22;6305;48.398;11.762;2023-04-06T11:46:33;24.30;22.10
12481;DHT22;6305;48.398;11.762;2023-04-06T11:49:01;24.00;22.30
12481;DHT22;6305;48.398;11.762;2023-04-06T11:51:29;22.60;22.40
12481;DHT22;6305;48.398;11.762;2023-04-06T11:53:55;19.60;24.00
12481;DHT22;6305;48.398;11.762;2023-04-06T11:56:24;19.60;26.40
12481;DHT22;6305;48.398;11.762;2023-04-06T11:58:52;20.90;26.20
12481;DHT22;6305;48.398;11.762;2023-04-06T12:01:20;22.40;24.60
12481;DHT22;6305;48.398;11.762;2023-04-06T12:03:49;24.00;23.90
12481;DHT22;6305;48.398;11.762;2023-04-06T12:06:17;25.60;23.00
12481;DHT22;6305;48.398;11.762;2023-04-06T12:08:44;26.70;21.90
12481;DHT22;6305;48.398;11.762;2023-04-06T12:11:11;27.50;21.10
12481;DHT22;6305;48.398;11.762;2023-04-06T12:13:38;27.80;20.70
12481;DHT22;6305;48.398;11.762;2023-04-06T12:16:05;27.40;20.20
12481;DHT22;6305;48.398;11.762;2023-04-06T12:18:32;26.10;20.70
12481;DHT22;6305;48.398;11.762;2023-04-06T12:21:01;25.30;20.80
12481;DHT22;6305;48.398;11.762;2023-04-06T12:23:27;25.30;21.50
12481;DHT22;6305;48.398;11.762;2023-04-06T12:25:54;24.30;21.10
12481;DHT22;6305;48.398;11.762;2023-04-06T12:28:21;23.60;22.80
12481;DHT22;6305;48.398;11.762;2023-04-06T12:30:53;23.60;23.30
12481;DHT22;6305;48.398;11.762;2023-04-06T12:33:20;22.80;23.20
12481;DHT22;6305;48.398;11.762;2023-04-06T12:35:47;21.50;23.90
12481;DHT22;6305;48.398;11.762;2023-04-06T12:38:16;20.50;24.60
12481;DHT22;6305;48.398;11.762;2023-04-06T12:40:43;19.70;25.20
12481;DHT22;6305;48.398;11.762;2023-04-06T12:43:11;18.60;25.60
12481;DHT22;6305;48.398;11.762;2023-04-06T12:45:39;18.80;27.40
12481;DHT22;6305;48.398;11.762;2023-04-06T12:48:06;20.30;26.90
12481;DHT22;6305;48.398;11.762;2023-04-06T12:50:33;22.20;26.20
12481;DHT22;6305;48.398;11.762;2023-04-06T12:53:00;23.90;24.70
12481;DHT22;6305;48.398;11.762;2023-04-06T12:55:30;23.80;23.10
12481;DHT22;6305;48.398;11.762;2023-04-06T12:57:59;24.00;23.80
12481;DHT22;6305;48.398;11.762;2023-04-06T13:00:27;24.70;23.40
12481;DHT22;6305;48.398;11.762;2023-04-06T13:02:54;24.00;22.40
12481;DHT22;6305;48.398;11.762;2023-04-06T13:05:20;23.70;22.90
12481;DHT22;6305;48.398;11.762;2023-04-06T13:07:47;23.90;22.90
12481;DHT22;6305;48.398;11.762;2023-04-06T13:10:15;24.20;22.90
12481;DHT22;6305;48.398;11.762;2023-04-06T13:12:43;24.40;22.10
12481;DHT22;6305;48.398;11.762;2023-04-06T13:15:10;25.30;22.70
12481;DHT22;6305;48.398;11.762;2023-04-06T13:17:37;26.10;21.80
12481;DHT22;6305;48.398;11.762;2023-04-06T13:20:05;26.50;21.10
12481;DHT22;6305;48.398;11.762;2023-04-06T13:22:33;26.80;20.80
12481;DHT22;6305;48.398;11.762;2023-04-06T13:24:59;26.90;20.70
12481;DHT22;6305;48.398;11.762;2023-04-06T13:27:26;26.80;21.00
12481;DHT22;6305;48.398;11.762;2023-04-06T13:29:55;26.90;21.10
12481;DHT22;6305;48.398;11.762;2023-04-06T13:32:22;26.90;21.10
12481;DHT22;6305;48.398;11.762;2023-04-06T13:34:49;26.80;21.10
12481;DHT22;6305;48.398;11.762;2023-04-06T13:37:18;26.80;20.60
12481;DHT22;6305;48.398;11.762;2023-04-06T13:39:45;27.20;20.60
12481;DHT22;6305;48.398;11.762;2023-04-06T13:42:12;27.50;20.00
12481;DHT22;6305;48.398;11.762;2023-04-06T13:44:39;27.10;19.80
12481;DHT22;6305;48.398;11.762;2023-04-06T13:47:08;26.10;19.90
12481;DHT22;6305;48.398;11.762;2023-04-06T13:49:35;25.00;21.10
12481;DHT22;6305;48.398;11.762;2023-04-06T13:52:02;23.30;21.40
12481;DHT22;6305;48.398;11.762;2023-04-06T13:54:29;22.70;22.70
12481;DHT22;6305;48.398;11.762;2023-04-06T13:56:56;23.70;22.80
12481;DHT22;6305;48.398;11.762;2023-04-06T13:59:23;23.90;21.90
12481;DHT22;6305;48.398;11.762;2023-04-06T14:01:50;22.70;22.30
12481;DHT22;6305;48.398;11.762;2023-04-06T14:04:20;23.10;22.90
12481;DHT22;6305;48.398;11.762;2023-04-06T14:06:47;23.70;22.60
12481;DHT22;6305;48.398;11.762;2023-04-06T14:09:14;24.20;22.50
12481;DHT22;6305;48.398;11.762;2023-04-06T14:11:41;24.00;22.10
12481;DHT22;6305;48.398;11.762;2023-04-06T14:14:08;22.40;21.80
12481;DHT22;6305;48.398;11.762;2023-04-06T14:16:35;20.70;23.00
12481;DHT22;6305;48.398;11.762;2023-04-06T14:19:02;19.20;24.40
12481;DHT22;6305;48.398;11.762;2023-04-06T14:21:30;17.90;25.70
12481;DHT22;6305;48.398;11.762;2023-04-06T14:23:58;16.60;26.70
12481;DHT22;6305;48.398;11.762;2023-04-06T14:26:25;16.30;27.90
12481;DHT22;6305;48.398;11.762;2023-04-06T14:28:52;16.90;28.60
12481;DHT22;6305;48.398;11.762;2023-04-06T14:31:19;17.10;28.10
12481;DHT22;6305;48.398;11.762;2023-04-06T14:33:46;17.90;28.30
12481;DHT22;6305;48.398;11.762;2023-04-06T14:36:12;19.50;27.70
12481;DHT22;6305;48.398;11.762;2023-04-06T14:38:41;21.10;26.40
12481;DHT22;6305;48.398;11.762;2023-04-06T14:41:15;22.60;25.00
12481;DHT22;6305;48.398;11.762;2023-04-06T14:43:42;24.30;24.00
12481;DHT22;6305;48.398;11.762;2023-04-06T14:46:09;25.20;22.70
12481;DHT22;6305;48.398;11.762;2023-04-06T14:48:36;25.60;22.00
12481;DHT22;6305;48.398;11.762;2023-04-06T14:51:03;25.70;21.50
12481;DHT22;6305;48.398;11.762;2023-04-06T14:53:30;25.00;21.50
12481;DHT22;6305;48.398;11.762;2023-04-06T14:55:59;24.00;21.70
12481;DHT22;6305;48.398;11.762;2023-04-06T14:58:26;22.90;21.30
12481;DHT22;6305;48.398;11.762;2023-04-06T15:00:55;22.40;21.60
12481;DHT22;6305;48.398;11.762;2023-04-06T15:03:22;22.40;21.80
12481;DHT22;6305;48.398;11.762;2023-04-06T15:05:50;22.30;21.90
12481;DHT22;6305;48.398;11.762;2023-04-06T15:08:18;22.30;22.00
12481;DHT22;6305;48.398;11.762;2023-04-06T15:10:46;22.30;22.10
12481;DHT22;6305;48.398;11.762;2023-04-06T15:13:14;22.50;22.10
12481;DHT22;6305;48.398;11.762;2023-04-06T15:15:41;22.00;21.90
12481;DHT22;6305;48.398;11.762;2023-04-06T15:18:08;22.00;22.50
12481;DHT22;6305;48.398;11.762;2023-04-06T15:20:36;21.90;22.90
12481;DHT22;6305;48.398;11.762;2023-04-06T15:23:03;21.20;23.10
12481;DHT22;6305;48.398;11.762;2023-04-06T15:25:30;20.10;23.90
12481;DHT22;6305;48.398;11.762;2023-04-06T15:27:58;19.60;24.30
12481;DHT22;6305;48.398;11.762;2023-04-06T15:30:27;19.20;24.40
12481;DHT22;6305;48.398;11.762;2023-04-06T15:32:56;18.80;24.60
12481;DHT22;6305;48.398;11.762;2023-04-06T15:35:24;18.00;24.80
12481;DHT22;6305;48.398;11.762;2023-04-06T15:37:53;16.70;26.50
12481;DHT22;6305;48.398;11.762;2023-04-06T15:40:20;15.60;27.80
12481;DHT22;6305;48.398;11.762;2023-04-06T15:42:47;14.80;28.70